Time;durP1;ratioP1;P1;durP2;ratioP2;P2;SDS_P1;SDS_P2;PMS_P1;PMS_P2;Temp;Humidity;BMP_temperature;BMP_pressure;BME280_temperature;BME280_humidity;BME280_pressure;Samples;Min_cycle;Max_cycle;Signal;HPM_P1;HPM_P2
2023/03/29 00:02:01;;;;;;;2.60;1.20;;;;;;;2.02;63.20;99366.67;108099;1254;59410;-79
2023/03/29 00:04:30;;;;;;;2.40;1.30;;;;;;;2.00;63.15;99352.14;108171;1254;61230;-79
2023/03/29 00:07:03;;;;;;;2.40;1.30;;;;;;;2.01;63.16;99345.90;108158;1254;74985;-78
2023/03/29 00:09:33;;;;;;;2.60;1.40;;;;;;;2.00;63.18;99370.30;108163;1254;73689;-78
2023/03/29 00:12:02;;;;;;;3.70;1.30;;;;;;;2.00;63.23;99355.20;108173;1254;71427;-79
2023/03/29 00:14:33;;;;;;;2.70;1.40;;;;;;;1.98;62.75;99367.46;108160;1254;60427;-79
2023/03/29 00:17:01;;;;;;;2.80;1.30;;;;;;;1.99;62.63;99362.34;108162;1254;60601;-79
2023/03/29 00:19:34;;;;;;;3.40;1.30;;;;;;;1.99;63.04;99369.39;108157;1254;75028;-80
2023/03/29 00:22:05;;;;;;;2.50;1.30;;;;;;;2.00;63.24;99365.45;108164;1254;72911;-79
2023/03/29 00:24:33;;;;;;;3.80;1.30;;;;;;;1.98;63.01;99367.74;108172;1254;72958;-80
2023/03/29 00:27:03;;;;;;;1.80;1.20;;;;;;;1.97;62.84;99354.96;108118;1254;61352;-78
2023/03/29 00:29:32;;;;;;;2.80;1.30;;;;;;;1.97;63.26;99362.29;108180;1254;60549;-77
2023/03/29 00:32:00;;;;;;;2.50;1.30;;;;;;;1.97;63.18;99369.98;108126;1254;73073;-79
2023/03/29 00:34:29;;;;;;;2.10;1.30;;;;;;;1.98;63.18;99373.63;108174;1254;72749;-79
2023/03/29 00:36:59;;;;;;;2.00;1.20;;;;;;;1.98;63.44;99378.38;108138;1254;73570;-78
2023/03/29 00:39:29;;;;;;;2.40;1.30;;;;;;;1.98;63.68;99374.36;108165;1254;61700;-80
2023/03/29 00:42:04;;;;;;;2.80;1.40;;;;;;;1.97;63.53;99389.92;107942;1253;60345;-78
2023/03/29 00:44:52;;;;;;;2.90;1.30;;;;;;;1.94;63.26;99383.75;108168;1254;73193;-79
2023/03/29 00:47:37;;;;;;;2.70;1.30;;;;;;;1.94;63.37;99388.45;108195;1254;71470;-79
2023/03/29 00:50:11;;;;;;;2.70;1.30;;;;;;;1.91;63.19;99394.48;108403;1254;71019;-77
2023/03/29 00:52:40;;;;;;;2.60;1.40;;;;;;;1.90;63.22;99415.11;108475;1255;59509;-79
2023/03/29 00:55:15;;;;;;;2.50;1.30;;;;;;;1.93;63.26;99409.61;108336;1255;60298;-79
2023/03/29 00:57:48;;;;;;;4.20;1.40;;;;;;;1.95;63.49;99417.98;108368;1256;73881;-79
2023/03/29 01:00:19;;;;;;;2.50;1.30;;;;;;;1.94;63.30;99425.95;108142;1254;72737;-79
2023/03/29 01:02:53;;;;;;;1.80;1.10;;;;;;;1.94;63.36;99447.34;108222;1254;71959;-79
2023/03/29 01:05:25;;;;;;;2.20;1.10;;;;;;;1.95;62.87;99438.55;108146;1259;60371;-79
2023/03/29 01:07:56;;;;;;;;;;;;;;;1.91;62.83;99439.05;108178;1254;59059;-78
2023/03/29 01:10:35;;;;;;;2.70;1.50;;;;;;;1.90;63.00;99438.54;108178;1257;74208;-78
2023/03/29 01:13:10;;;;;;;2.50;1.30;;;;;;;1.91;63.13;99441.64;108132;1256;71942;-79
2023/03/29 01:15:40;;;;;;;2.00;1.30;;;;;;;1.91;63.00;99450.52;108221;1255;72707;-79
2023/03/29 01:18:09;;;;;;;1.80;1.10;;;;;;;1.92;62.51;99449.81;108437;1256;59397;-80
2023/03/29 01:20:45;;;;;;;2.50;1.30;;;;;;;1.91;62.80;99450.80;108393;1256;59154;-79
2023/03/29 01:23:45;;;;;;;2.70;1.20;;;;;;;1.92;62.66;99451.80;108688;1255;75101;-78
2023/03/29 01:26:17;;;;;;;2.00;1.10;;;;;;;1.90;62.38;99467.09;108718;1254;71140;-81
2023/03/29 01:29:03;;;;;;;2.90;1.20;;;;;;;1.91;62.29;99465.11;108395;1254;70514;-80
2023/03/29 01:31:41;;;;;;;3.60;1.30;;;;;;;1.92;62.41;99474.24;108590;1256;60762;-75
2023/03/29 01:34:17;;;;;;;2.30;1.20;;;;;;;1.94;62.29;99471.49;108796;1254;59465;-78
2023/03/29 01:37:33;;;;;;;3.50;1.50;;;;;;;1.95;61.89;99478.02;108333;1254;73742;-80
2023/03/29 01:40:03;;;;;;;2.20;1.30;;;;;;;1.94;61.75;99477.25;108155;1254;72980;-79
2023/03/29 01:42:42;;;;;;;2.70;1.20;;;;;;;1.91;61.32;99493.70;108230;1256;73275;-79
2023/03/29 01:45:46;;;;;;;3.20;1.40;;;;;;;1.92;61.45;99491.99;108251;1254;60465;-80
2023/03/29 01:48:32;;;;;;;3.20;1.60;;;;;;;1.92;61.73;99495.16;108224;1253;61369;-83
2023/03/29 01:51:53;;;;;;;2.00;1.20;;;;;;;1.90;61.53;99491.24;108122;1256;73004;-79
2023/03/29 01:54:34;;;;;;;3.00;1.20;;;;;;;1.90;61.34;99502.69;108036;1254;73007;-79
2023/03/29 01:57:03;;;;;;;2.80;1.40;;;;;;;1.91;61.76;99508.29;108123;1254;72052;-80
2023/03/29 01:59:33;;;;;;;3.30;1.30;;;;;;;1.91;61.80;99506.78;107980;1254;61604;-78
2023/03/29 02:02:04;;;;;;;2.20;1.40;;;;;;;1.93;62.09;99517.65;108116;1254;60911;-78
2023/03/29 02:04:35;;;;;;;2.00;1.20;;;;;;;1.93;62.29;99525.84;108189;1254;72061;-79
2023/03/29 02:07:07;;;;;;;2.50;1.40;;;;;;;1.94;62.50;99520.23;108096;1254;73011;-79
2023/03/29 02:09:36;;;;;;;3.00;1.50;;;;;;;1.96;62.44;99527.96;108135;1254;70608;-80
2023/03/29 02:12:06;;;;;;;2.80;1.40;;;;;;;1.97;62.62;99528.45;108095;1254;61249;-80
2023/03/29 02:14:36;;;;;;;2.40;1.20;;;;;;;1.94;62.43;99535.50;108118;1254;60516;-79
2023/03/29 02:17:19;;;;;;;2.90;1.30;;;;;;;1.94;62.23;99538.70;108112;1254;72710;-80
2023/03/29 02:20:21;;;;;;;4.60;1.50;;;;;;;1.96;62.48;99536.13;108148;1254;71134;-78
2023/03/29 02:23:04;;;;;;;2.90;1.40;;;;;;;1.96;62.62;99537.91;108079;1256;71826;-80
2023/03/29 02:25:32;;;;;;;2.00;1.30;;;;;;;1.97;62.80;99547.41;108334;1254;60675;-78
2023/03/29 02:28:01;;;;;;;2.70;1.40;;;;;;;1.95;62.78;99556.59;108490;1254;61562;-78
2023/03/29 02:30:49;;;;;;;2.80;1.40;;;;;;;1.97;62.81;99546.52;108352;1254;71702;-78
2023/03/29 02:33:24;;;;;;;3.50;1.20;;;;;;;1.97;63.17;99554.26;108160;1254;71165;-78
2023/03/29 02:35:59;;;;;;;3.20;1.50;;;;;;;1.99;63.35;99545.58;108020;1256;70281;-78
2023/03/29 02:38:30;;;;;;;2.30;1.30;;;;;;;2.00;63.03;99556.08;107988;1256;60483;-78
2023/03/29 02:40:58;;;;;;;3.00;1.40;;;;;;;1.97;62.55;99565.64;107870;1257;59119;-80
2023/03/29 02:43:29;;;;;;;2.90;1.50;;;;;;;1.95;62.54;99567.29;108137;1257;72981;-80
2023/03/29 02:45:59;;;;;;;2.30;1.50;;;;;;;2.03;62.11;99559.27;108044;1256;71939;-80
2023/03/29 02:48:29;;;;;;;3.60;1.40;;;;;;;2.00;62.15;99562.48;107991;1257;72094;-81
2023/03/29 02:51:08;;;;;;;1.90;1.30;;;;;;;1.93;62.48;99552.16;107925;1255;61481;-80
2023/03/29 02:53:42;;;;;;;3.10;1.30;;;;;;;1.94;62.75;99562.38;108056;1257;60876;-80
2023/03/29 02:56:10;;;;;;;2.90;1.60;;;;;;;1.95;62.58;99563.17;108130;1255;75084;-80
2023/03/29 02:58:39;;;;;;;2.30;1.40;;;;;;;1.94;62.72;99563.59;108162;1254;73649;-79
2023/03/29 03:01:09;;;;;;;2.70;1.50;;;;;;;1.94;62.39;99559.24;108177;1254;72973;-79
2023/03/29 03:03:41;;;;;;;2.50;1.50;;;;;;;1.93;62.32;99560.27;108143;1254;61892;-81
2023/03/29 03:06:11;;;;;;;3.00;1.20;;;;;;;1.93;62.41;99552.21;108175;1254;60352;-80
2023/03/29 03:08:40;;;;;;;3.40;1.40;;;;;;;1.92;62.51;99564.38;108111;1256;75081;-80
2023/03/29 03:11:09;;;;;;;2.60;1.60;;;;;;;1.92;62.52;99560.05;108064;1256;73203;-80
2023/03/29 03:13:40;;;;;;;2.80;1.60;;;;;;;1.93;62.44;99573.19;108109;1255;72924;-80
2023/03/29 03:16:09;;;;;;;2.20;1.40;;;;;;;1.92;62.39;99579.58;107978;1256;61275;-82
2023/03/29 03:18:39;;;;;;;3.10;1.50;;;;;;;1.92;62.51;99576.79;108103;1256;60502;-80
2023/03/29 03:21:08;;;;;;;3.90;1.60;;;;;;;1.91;62.63;99575.86;108126;1255;73495;-82
2023/03/29 03:23:40;;;;;;;3.20;1.50;;;;;;;1.92;62.76;99577.02;108037;1260;70827;-79
2023/03/29 03:26:12;;;;;;;3.50;1.60;;;;;;;1.93;62.74;99579.71;108129;1254;72911;-78
2023/03/29 03:28:42;;;;;;;2.80;1.50;;;;;;;1.92;62.60;99592.70;108129;1254;60892;-79
2023/03/29 03:31:18;;;;;;;3.80;1.60;;;;;;;1.91;62.23;99587.45;108106;1254;61338;-78
2023/03/29 03:34:10;;;;;;;2.90;1.50;;;;;;;1.90;62.40;99595.39;108200;1254;73946;-80
2023/03/29 03:36:49;;;;;;;2.50;1.30;;;;;;;1.90;62.41;99583.36;108144;1254;72950;-80
2023/03/29 03:39:19;;;;;;;2.30;1.30;;;;;;;1.88;62.00;99596.60;108004;1254;73020;-81
2023/03/29 03:41:47;;;;;;;3.10;1.60;;;;;;;1.87;62.31;99592.11;108109;1253;60074;-81
2023/03/29 03:44:17;;;;;;;2.90;1.40;;;;;;;1.88;62.34;99596.60;108150;1254;60335;-82
2023/03/29 03:46:46;;;;;;;3.00;1.50;;;;;;;1.88;62.32;99598.86;108137;1259;75088;-81
2023/03/29 03:49:15;;;;;;;2.70;1.40;;;;;;;1.91;62.39;99606.41;108236;1254;73616;-81
2023/03/29 03:51:44;;;;;;;2.90;1.40;;;;;;;1.92;62.40;99615.91;108158;1257;71107;-82
2023/03/29 03:54:14;;;;;;;2.70;1.30;;;;;;;1.92;62.32;99610.56;108170;1254;61130;-80
2023/03/29 03:57:15;;;;;;;3.30;1.60;;;;;;;1.89;61.91;99607.48;108160;1254;61858;-80
2023/03/29 03:59:49;;;;;;;2.10;1.40;;;;;;;1.86;61.85;99605.61;108071;1256;73714;-81
2023/03/29 04:02:26;;;;;;;5.20;1.60;;;;;;;1.83;61.60;99603.20;108384;1255;73780;-80
2023/03/29 04:04:55;;;;;;;3.20;1.30;;;;;;;1.83;61.93;99614.64;108330;1255;70434;-81
2023/03/29 04:07:31;;;;;;;2.50;1.40;;;;;;;1.85;62.15;99626.57;108146;1255;60510;-79
2023/03/29 04:10:26;;;;;;;2.70;1.50;;;;;;;1.87;61.99;99623.91;108189;1254;60597;-81
2023/03/29 04:13:08;;;;;;;;;;;;;;;1.89;61.81;99623.48;108162;1254;73383;-81
2023/03/29 04:16:00;;;;;;;3.50;1.60;;;;;;;1.90;61.50;99634.30;108050;1255;73430;-80
2023/03/29 04:18:55;;;;;;;3.20;1.50;;;;;;;1.85;61.48;99642.98;108059;1256;73020;-82
2023/03/29 04:22:04;;;;;;;2.90;1.60;;;;;;;1.80;61.45;99640.48;107792;1256;61920;-79
2023/03/29 04:24:33;;;;;;;3.00;1.50;;;;;;;1.79;61.56;99650.44;108133;1254;59420;-80
2023/03/29 04:27:20;;;;;;;3.10;1.70;;;;;;;1.82;62.00;99644.23;108152;1253;74047;-79
2023/03/29 04:29:56;;;;;;;2.60;1.50;;;;;;;1.82;61.67;99650.20;108120;1258;71980;-78
2023/03/29 04:32:48;;;;;;;;;;;;;;;1.81;61.42;99666.07;108152;1254;72254;-80
2023/03/29 04:35:18;;;;;;;4.20;1.70;;;;;;;1.83;61.67;99652.85;108107;1254;60434;-80
2023/03/29 04:37:47;;;;;;;3.30;1.60;;;;;;;1.85;61.78;99668.08;108148;1254;62551;-79
2023/03/29 04:40:18;;;;;;;2.90;1.70;;;;;;;1.83;61.27;99666.70;108091;1254;72514;-81
2023/03/29 04:43:08;;;;;;;4.30;1.70;;;;;;;1.81;61.33;99659.11;107986;1256;73138;-80
2023/03/29 04:45:41;;;;;;;4.10;1.70;;;;;;;1.76;61.16;99678.40;108030;1256;71485;-81
2023/03/29 04:48:21;;;;;;;3.80;1.80;;;;;;;1.74;61.18;99669.23;108079;1257;61334;-80
2023/03/29 04:50:49;;;;;;;2.50;1.50;;;;;;;1.75;61.13;99690.66;108085;1254;60605;-82
2023/03/29 04:53:18;;;;;;;3.80;1.60;;;;;;;1.75;61.26;99678.34;108130;1255;73946;-81
2023/03/29 04:55:46;;;;;;;4.20;2.00;;;;;;;1.78;61.64;99691.38;108142;1254;71940;-80
2023/03/29 04:58:23;;;;;;;4.80;1.70;;;;;;;1.78;61.96;99702.22;108102;1254;71343;-82
2023/03/29 05:01:03;;;;;;;2.90;1.60;;;;;;;1.75;61.17;99690.77;108113;1254;61739;-82
2023/03/29 05:03:40;;;;;;;3.70;1.90;;;;;;;1.72;61.21;99697.89;108137;1254;61257;-82
2023/03/29 05:06:15;;;;;;;2.60;1.70;;;;;;;1.70;61.38;99695.62;108100;1257;73971;-82
2023/03/29 05:08:48;;;;;;;4.00;2.00;;;;;;;1.71;61.37;99696.29;108147;1254;72956;-81
2023/03/29 05:11:29;;;;;;;3.00;1.80;;;;;;;1.71;61.48;99710.91;108127;1257;73907;-83
2023/03/29 05:14:01;;;;;;;3.60;1.60;;;;;;;1.68;61.17;99694.42;108098;1254;61314;-81
2023/03/29 05:16:33;;;;;;;2.50;1.50;;;;;;;1.68;61.48;99686.08;108068;1254;59542;-80
2023/03/29 05:19:08;;;;;;;4.80;1.70;;;;;;;1.61;61.28;99692.90;108160;1254;74245;-84
2023/03/29 05:21:41;;;;;;;3.20;1.60;;;;;;;1.62;61.72;99692.09;108115;1254;72259;-80
2023/03/29 05:24:15;;;;;;;3.60;1.60;;;;;;;1.65;61.97;99694.73;108123;1254;70908;-82
2023/03/29 05:27:08;;;;;;;3.10;1.70;;;;;;;1.65;61.86;99700.64;108067;1254;60939;-81
2023/03/29 05:29:40;;;;;;;2.90;1.80;;;;;;;1.64;62.10;99699.02;108209;1254;60470;-82
2023/03/29 05:32:29;;;;;;;3.50;1.90;;;;;;;1.64;62.06;99701.92;108175;1253;74672;-81
2023/03/29 05:34:57;;;;;;;4.60;1.90;;;;;;;1.59;62.21;99700.67;108397;1253;72219;-80
2023/03/29 05:37:27;;;;;;;3.90;1.80;;;;;;;1.57;62.19;99704.42;108538;1254;73103;-78
2023/03/29 05:40:06;;;;;;;5.10;1.90;;;;;;;1.54;62.25;99710.07;108529;1254;59803;-81
2023/03/29 05:42:46;;;;;;;4.20;1.90;;;;;;;1.52;62.16;99725.85;108293;1254;61961;-80
2023/03/29 05:45:16;;;;;;;3.30;1.90;;;;;;;1.53;62.14;99717.50;108248;1254;73793;-79
2023/03/29 05:47:45;;;;;;;5.10;2.30;;;;;;;1.55;61.98;99716.58;108195;1254;73006;-82
2023/03/29 05:50:14;;;;;;;4.20;1.80;;;;;;;1.53;61.84;99730.48;108156;1254;71326;-80
2023/03/29 05:52:46;;;;;;;4.60;1.70;;;;;;;1.46;61.96;99728.95;108105;1254;61493;-82
2023/03/29 05:55:14;;;;;;;4.00;2.30;;;;;;;1.45;62.31;99725.42;108196;1254;60220;-82
2023/03/29 05:57:44;;;;;;;3.80;1.90;;;;;;;1.47;62.29;99739.22;108179;1254;75075;-81
2023/03/29 06:00:22;;;;;;;4.70;2.30;;;;;;;1.50;62.47;99735.42;108173;1254;72707;-81
2023/03/29 06:02:55;;;;;;;5.60;2.20;;;;;;;1.51;62.32;99733.30;108091;1254;73640;-81
2023/03/29 06:05:38;;;;;;;;;;;;;;;1.52;61.86;99745.16;108116;1259;60291;-83
2023/03/29 06:08:07;;;;;;;4.00;1.90;;;;;;;1.49;61.41;99742.11;108088;1256;61021;-82
2023/03/29 06:10:42;;;;;;;3.80;2.00;;;;;;;1.47;61.66;99757.95;108006;1255;73355;-82
2023/03/29 06:13:41;;;;;;;5.30;2.00;;;;;;;1.51;61.65;99762.85;107972;1256;74001;-83
2023/03/29 06:16:10;;;;;;;4.10;2.10;;;;;;;1.51;61.55;99771.13;108124;1259;72852;-82
2023/03/29 06:18:39;;;;;;;4.80;2.20;;;;;;;1.55;61.86;99774.61;108155;1254;61250;-81
2023/03/29 06:21:10;;;;;;;7.10;2.80;;;;;;;1.55;61.60;99770.23;108244;1254;60424;-81
2023/03/29 06:23:40;;;;;;;6.10;2.10;;;;;;;1.59;61.89;99768.02;108176;1254;75117;-82
2023/03/29 06:26:14;;;;;;;5.40;2.80;;;;;;;1.64;61.89;99765.52;108185;1254;73663;-81
2023/03/29 06:28:47;;;;;;;4.70;2.50;;;;;;;1.68;62.03;99762.45;108175;1254;72425;-80
2023/03/29 06:31:19;;;;;;;5.20;2.50;;;;;;;1.72;61.89;99771.33;108187;1254;60340;-81
2023/03/29 06:33:50;;;;;;;3.70;2.20;;;;;;;1.76;61.79;99778.30;108186;1255;60364;-80
2023/03/29 06:36:53;;;;;;;4.00;2.20;;;;;;;1.82;61.78;99771.83;107619;1260;73192;-81
2023/03/29 06:39:25;;;;;;;4.10;2.20;;;;;;;1.89;61.90;99781.16;108055;1254;72190;-81
2023/03/29 06:42:13;;;;;;;5.50;2.80;;;;;;;1.98;61.86;99785.84;108097;1257;73881;-78
2023/03/29 06:45:19;;;;;;;4.40;2.20;;;;;;;1.94;60.64;99791.92;108121;1257;60443;-80
2023/03/29 06:47:51;;;;;;;5.20;2.00;;;;;;;1.90;60.62;99801.48;108039;1256;60339;-79
2023/03/29 06:50:21;;;;;;;5.00;2.50;;;;;;;1.85;60.41;99804.66;108104;1257;72924;-82
2023/03/29 06:53:25;;;;;;;4.20;2.30;;;;;;;1.82;60.89;99805.98;108007;1254;72843;-82
2023/03/29 06:55:58;;;;;;;5.60;2.80;;;;;;;1.79;60.47;99810.98;108193;1259;72652;-79
2023/03/29 06:58:47;;;;;;;4.20;2.30;;;;;;;1.68;61.40;99822.96;108088;1254;61433;-81
2023/03/29 07:01:39;;;;;;;;;;;;;;;1.71;62.03;99823.06;108117;1254;60358;-81
2023/03/29 07:04:24;;;;;;;5.70;2.50;;;;;;;1.78;62.31;99825.75;108277;1253;73216;-82
2023/03/29 07:07:42;;;;;;;6.70;2.70;;;;;;;1.85;61.76;99830.33;108180;1257;74186;-78
2023/03/29 07:10:26;;;;;;;4.40;2.40;;;;;;;1.90;60.91;99842.95;108364;1255;72935;-77
2023/03/29 07:13:17;;;;;;;8.00;2.80;;;;;;;1.92;60.87;99845.55;108546;1255;61217;-77
2023/03/29 07:15:45;;;;;;;7.10;2.80;;;;;;;1.93;60.90;99853.11;108267;1255;60364;-80
2023/03/29 07:18:35;;;;;;;5.40;2.60;;;;;;;1.91;60.46;99863.64;107879;1256;72158;-80
2023/03/29 07:21:05;;;;;;;5.20;3.00;;;;;;;1.94;61.01;99862.73;108110;1254;72964;-80
2023/03/29 07:23:33;;;;;;;5.80;3.00;;;;;;;1.97;60.76;99869.24;108057;1257;71489;-79
2023/03/29 07:26:09;;;;;;;3.70;2.30;;;;;;;1.95;60.35;99873.31;106798;1255;5269969;-79
2023/03/29 07:28:38;;;;;;;9.20;3.00;;;;;;;1.92;60.22;99863.77;108086;1256;61628;-80
2023/03/29 07:31:09;;;;;;;3.90;2.30;;;;;;;1.90;60.25;99873.68;108058;1257;61559;-79
2023/03/29 07:33:46;;;;;;;4.70;2.50;;;;;;;1.90;60.36;99875.06;108081;1257;74890;-79
2023/03/29 07:36:18;;;;;;;5.60;2.60;;;;;;;1.92;60.43;99881.64;108023;1257;72413;-80
2023/03/29 07:38:47;;;;;;;3.90;2.10;;;;;;;1.89;60.45;99885.55;107992;1256;74192;-80
2023/03/29 07:41:18;;;;;;;4.90;2.30;;;;;;;1.90;60.73;99883.17;108011;1257;61092;-81
2023/03/29 07:44:07;;;;;;;3.80;2.30;;;;;;;1.97;61.24;99881.27;108038;1257;60576;-80
2023/03/29 07:46:41;;;;;;;5.40;2.80;;;;;;;2.06;61.19;99889.77;108067;1257;75114;-81
2023/03/29 07:49:10;;;;;;;4.40;2.70;;;;;;;2.09;60.50;99889.91;107868;1257;71214;-80
2023/03/29 07:51:39;;;;;;;3.90;2.30;;;;;;;2.07;60.40;99891.31;108003;1254;70847;-80
2023/03/29 07:54:11;;;;;;;4.10;2.30;;;;;;;2.07;60.35;99889.37;108187;1254;60479;-79
2023/03/29 07:56:41;;;;;;;4.60;2.30;;;;;;;2.07;60.56;99900.30;108118;1254;60571;-80
2023/03/29 07:59:26;;;;;;;4.60;2.40;;;;;;;2.10;60.68;99916.80;108193;1254;73934;-78
2023/03/29 08:02:06;;;;;;;6.50;2.60;;;;;;;2.15;60.44;99911.18;108113;1254;72772;-80
2023/03/29 08:04:40;;;;;;;4.90;2.90;;;;;;;2.19;60.61;99931.48;108220;1254;73628;-81
2023/03/29 08:07:22;;;;;;;3.90;2.30;;;;;;;2.13;60.22;99924.73;108144;1255;62073;-80
2023/03/29 08:09:55;;;;;;;5.00;2.50;;;;;;;2.11;60.41;99928.27;107999;1260;60568;-80
2023/03/29 08:12:33;;;;;;;3.90;2.10;;;;;;;2.06;60.50;99930.75;108149;1255;73223;-80
2023/03/29 08:15:05;;;;;;;4.20;2.30;;;;;;;2.00;60.65;99936.08;108242;1254;73634;-80
2023/03/29 08:17:36;;;;;;;4.00;2.40;;;;;;;1.97;60.91;99934.92;108442;1254;70782;-79
2023/03/29 08:20:06;;;;;;;4.90;2.70;;;;;;;2.00;61.18;99937.73;108388;1254;59372;-79
2023/03/29 08:22:35;;;;;;;4.70;2.30;;;;;;;2.05;61.39;99934.08;108832;1254;60294;-75
2023/03/29 08:25:13;;;;;;;3.70;2.40;;;;;;;2.14;61.52;99940.00;108837;1254;73513;-73
2023/03/29 08:27:49;;;;;;;5.10;2.50;;;;;;;2.21;61.55;99943.15;108697;1254;72417;-79
2023/03/29 08:30:25;;;;;;;4.10;2.60;;;;;;;2.13;60.65;99948.23;108622;1254;71702;-81
2023/03/29 08:32:56;;;;;;;4.80;2.60;;;;;;;2.09;61.05;99949.55;108055;1255;61485;-81
2023/03/29 08:35:25;;;;;;;5.30;2.50;;;;;;;2.12;61.27;99950.89;108020;1257;59774;-80
2023/03/29 08:38:11;;;;;;;4.80;2.60;;;;;;;2.15;61.58;99947.66;108109;1257;74080;-83
2023/03/29 08:40:40;;;;;;;5.20;2.90;;;;;;;2.17;61.24;99949.05;108009;1256;73879;-80
2023/03/29 08:43:15;;;;;;;5.30;2.60;;;;;;;2.19;61.26;99948.14;107992;1257;73774;-80
2023/03/29 08:46:11;;;;;;;5.60;3.00;;;;;;;2.13;61.18;99946.17;108104;1257;61789;-79
2023/03/29 08:48:45;;;;;;;4.70;2.80;;;;;;;2.18;61.25;99952.02;108568;1254;59329;-80
2023/03/29 08:51:22;;;;;;;4.80;2.40;;;;;;;2.24;61.22;99953.94;108270;1254;73723;-78
2023/03/29 08:54:12;;;;;;;4.50;2.80;;;;;;;2.24;61.07;99963.50;108318;1254;73797;-78
2023/03/29 08:57:26;;;;;;;8.10;3.70;;;;;;;2.20;60.97;99963.78;108145;1254;72779;-81
2023/03/29 09:00:00;;;;;;;6.00;3.40;;;;;;;2.18;61.31;99962.10;108170;1254;61138;-78
2023/03/29 09:02:33;;;;;;;5.70;3.00;;;;;;;2.13;61.19;99962.67;108102;1254;60266;-80
2023/03/29 09:05:19;;;;;;;6.90;3.10;;;;;;;2.11;61.53;99970.79;108110;1254;73815;-80
2023/03/29 09:08:17;;;;;;;6.30;3.00;;;;;;;2.01;61.39;99980.23;108013;1257;72581;-81
2023/03/29 09:11:13;;;;;;;5.20;3.00;;;;;;;2.03;61.69;99974.62;108081;1259;73928;-80
2023/03/29 09:13:55;;;;;;;4.70;2.70;;;;;;;2.05;61.99;99986.15;108085;1257;62397;-81
2023/03/29 09:16:27;;;;;;;;;;;;;;;2.10;61.95;99981.94;108025;1256;60428;-82
2023/03/29 09:19:12;;;;;;;4.70;2.80;;;;;;;2.13;61.91;99981.95;108093;1256;74254;-80
2023/03/29 09:21:44;;;;;;;4.70;2.60;;;;;;;2.17;61.94;99984.66;108021;1256;73622;-82
2023/03/29 09:24:22;;;;;;;5.20;2.90;;;;;;;2.21;61.86;99987.86;108021;1257;74270;-81
2023/03/29 09:27:26;;;;;;;4.80;2.90;;;;;;;2.27;61.76;99987.23;108028;1259;61514;-80
2023/03/29 09:30:24;;;;;;;5.90;3.20;;;;;;;2.31;61.59;100010.71;108092;1255;60340;-80
2023/03/29 09:33:23;;;;;;;4.70;2.50;;;;;;;2.26;61.41;100005.56;108021;1256;74090;-80
2023/03/29 09:36:13;;;;;;;4.60;2.90;;;;;;;2.23;61.50;100009.52;108077;1257;72222;-82
2023/03/29 09:38:45;;;;;;;5.50;3.60;;;;;;;2.22;61.38;100004.27;107971;1255;71197;-81
2023/03/29 09:41:25;;;;;;;5.60;2.80;;;;;;;2.21;61.53;100020.16;107994;1257;60400;-79
2023/03/29 09:43:55;;;;;;;4.00;2.70;;;;;;;2.18;61.47;100030.92;107890;1257;61170;-79
2023/03/29 09:46:35;;;;;;;6.30;2.80;;;;;;;2.16;61.13;100029.52;108005;1257;73725;-82
2023/03/29 09:49:04;;;;;;;4.70;2.90;;;;;;;2.14;61.77;100032.41;108092;1259;70868;-79
2023/03/29 09:51:32;;;;;;;5.50;3.00;;;;;;;2.16;61.56;100034.38;108092;1255;70582;-81
2023/03/29 09:54:19;;;;;;;6.00;2.90;;;;;;;2.15;61.88;100039.51;108106;1256;59875;-80
2023/03/29 09:57:12;;;;;;;5.90;3.30;;;;;;;2.19;62.08;100039.63;108007;1255;60758;-80
2023/03/29 09:59:40;;;;;;;4.70;2.90;;;;;;;2.23;62.49;100044.46;108012;1257;73992;-79
2023/03/29 10:02:11;;;;;;;4.80;2.90;;;;;;;2.29;62.37;100047.02;107978;1260;73626;-79
2023/03/29 10:04:41;;;;;;;4.70;2.70;;;;;;;2.32;62.15;100056.60;108071;1254;71928;-79
2023/03/29 10:07:17;;;;;;;4.50;2.60;;;;;;;2.39;62.22;100053.25;108129;1254;60328;-80
2023/03/29 10:09:49;;;;;;;4.80;2.80;;;;;;;2.40;61.37;100058.98;108206;1254;60803;-79
2023/03/29 10:12:18;;;;;;;5.90;3.20;;;;;;;2.36;61.15;100055.80;108139;1254;75125;-79
2023/03/29 10:14:52;;;;;;;5.70;2.60;;;;;;;2.40;61.51;100064.23;108093;1254;72912;-79
2023/03/29 10:17:23;;;;;;;6.00;3.10;;;;;;;2.40;61.46;100059.50;108138;1254;72952;-79
2023/03/29 10:19:52;;;;;;;5.00;2.80;;;;;;;2.41;61.24;100068.36;108051;1254;60455;-78
2023/03/29 10:22:27;;;;;;;5.60;3.00;;;;;;;2.42;61.06;100069.94;108223;1254;60287;-79
2023/03/29 10:24:56;;;;;;;3.90;2.50;;;;;;;2.43;61.13;100068.48;108485;1253;73638;-77
2023/03/29 10:27:26;;;;;;;4.40;2.60;;;;;;;2.40;60.47;100074.08;108337;1254;71759;-77
2023/03/29 10:29:59;;;;;;;4.60;2.50;;;;;;;2.37;60.68;100078.79;108169;1256;71231;-77
2023/03/29 10:32:34;;;;;;;4.30;2.80;;;;;;;2.32;60.75;100080.77;108067;1259;62403;-79
2023/03/29 10:35:12;;;;;;;4.20;2.40;;;;;;;2.35;61.03;100080.38;108084;1255;60329;-79
2023/03/29 10:37:42;;;;;;;5.60;3.10;;;;;;;2.41;61.30;100080.23;108059;1255;73820;-77
2023/03/29 10:40:25;;;;;;;4.90;2.60;;;;;;;2.42;60.65;100079.76;108145;1257;73218;-79
2023/03/29 10:42:53;;;;;;;4.40;2.90;;;;;;;2.43;60.42;100083.55;108076;1256;72871;-81
2023/03/29 10:45:27;;;;;;;4.70;2.80;;;;;;;2.48;60.95;100079.30;108078;1256;60447;-78
2023/03/29 10:47:57;;;;;;;5.20;2.80;;;;;;;2.57;60.98;100076.95;108096;1255;60085;-80
2023/03/29 10:50:32;;;;;;;4.40;2.60;;;;;;;2.68;61.01;100076.30;108178;1259;73573;-78
2023/03/29 10:53:04;;;;;;;4.80;3.10;;;;;;;2.77;60.39;100073.92;108182;1254;73709;-80
2023/03/29 10:55:36;;;;;;;4.40;2.50;;;;;;;2.84;59.68;100076.63;108159;1258;73637;-80
2023/03/29 10:58:22;;;;;;;4.70;2.60;;;;;;;2.81;59.09;100084.13;108206;1254;60388;-79
2023/03/29 11:00:55;;;;;;;5.30;3.20;;;;;;;2.76;58.77;100089.73;108228;1254;60351;-78
2023/03/29 11:03:51;;;;;;;4.90;2.90;;;;;;;2.76;59.03;100090.29;108142;1254;74782;-80
2023/03/29 11:06:39;;;;;;;4.30;2.70;;;;;;;2.82;59.03;100093.29;108039;1257;73245;-78
2023/03/29 11:09:18;;;;;;;4.90;3.30;;;;;;;2.87;58.62;100095.10;108146;1259;71931;-78
2023/03/29 11:11:56;;;;;;;5.60;3.40;;;;;;;2.90;58.83;100099.74;108093;1257;60497;-80
2023/03/29 11:14:45;;;;;;;4.80;2.70;;;;;;;2.90;58.29;100104.37;108091;1257;60628;-77
2023/03/29 11:17:38;;;;;;;4.70;3.10;;;;;;;2.82;57.56;100107.84;108071;1256;72878;-79
2023/03/29 11:20:45;;;;;;;5.00;3.10;;;;;;;2.79;57.84;100094.41;108144;1255;72162;-80
2023/03/29 11:23:36;;;;;;;4.70;2.70;;;;;;;2.82;57.91;100095.07;108139;1257;73150;-80
2023/03/29 11:26:40;;;;;;;5.90;3.10;;;;;;;2.87;57.87;100103.67;108123;1258;61461;-78
2023/03/29 11:29:21;;;;;;;4.10;2.90;;;;;;;2.87;58.13;100102.04;108027;1257;60296;-80
2023/03/29 11:31:58;;;;;;;5.00;3.10;;;;;;;2.90;58.07;100104.33;108129;1254;75097;-79
2023/03/29 11:35:04;;;;;;;5.60;2.10;;;;;;;2.92;58.14;100102.48;108174;1254;74021;-78
2023/03/29 11:37:42;;;;;;;4.10;2.20;;;;;;;2.86;57.35;100107.33;108134;1254;72822;-78
2023/03/29 11:40:35;;;;;;;4.00;2.20;;;;;;;2.82;57.37;100104.04;108065;1257;60302;-79
2023/03/29 11:43:14;;;;;;;4.20;2.30;;;;;;;2.85;57.46;100107.14;108125;1257;60438;-79
2023/03/29 11:45:52;;;;;;;4.80;2.60;;;;;;;2.89;57.47;100118.17;108074;1257;74272;-79
2023/03/29 11:48:25;;;;;;;4.20;2.40;;;;;;;2.92;57.15;100106.58;108080;1257;73038;-79
2023/03/29 11:50:54;;;;;;;4.30;2.20;;;;;;;2.97;57.23;100110.04;107974;1260;72778;-79
2023/03/29 11:53:30;;;;;;;3.60;2.50;;;;;;;2.99;56.77;100107.60;108106;1257;60420;-78
2023/03/29 11:56:07;;;;;;;4.10;2.50;;;;;;;2.99;56.48;100103.35;108104;1257;60340;-79
2023/03/29 11:58:41;;;;;;;4.00;2.30;;;;;;;2.98;56.80;100104.95;108297;1259;74701;-77
2023/03/29 12:01:11;;;;;;;;;;;;;;;2.98;56.62;100109.84;108337;1254;72252;-79
2023/03/29 12:03:52;;;;;;;6.00;2.40;;;;;;;2.99;56.81;100110.57;108211;1260;73312;-80
2023/03/29 12:06:31;;;;;;;4.70;2.40;;;;;;;3.03;57.15;100112.48;108195;1254;60995;-78
2023/03/29 12:09:23;;;;;;;3.80;2.30;;;;;;;3.08;57.00;100121.38;107971;1256;61580;-79
2023/03/29 12:12:08;;;;;;;4.50;2.30;;;;;;;3.05;56.59;100119.20;108092;1259;73411;-79
2023/03/29 12:14:51;;;;;;;3.70;2.20;;;;;;;3.02;56.63;100121.30;108093;1258;73749;-80
2023/03/29 12:17:31;;;;;;;4.60;2.30;;;;;;;3.05;56.82;100129.64;108057;1257;73058;-79
2023/03/29 12:20:05;;;;;;;4.50;2.50;;;;;;;3.07;56.33;100126.16;108110;1256;60344;-79
2023/03/29 12:22:38;;;;;;;4.10;2.50;;;;;;;3.10;56.31;100123.46;108020;1257;60478;-79